Turnovo, Bulgaria
Current Conditions -  °F | °C
As of 12:00 PM on Wednesday 28 Jan 2015 (Local Time) from LBGO Reporting Station
Drizzle Drizzle  
Wind Chill: 30°   Ceiling: 600
Heat Index: 37°   Visibility: 3mi
Dew Point: 36°   Wind: 12mph
Humidity: 93%   Direction: 290°WNW
Pressure: 29.94"   Gusts: NA
Location:  43.09°N, 25.64°E
Report Text: LBGO 280900Z 29010KT 5000 -DZ BKN006 OVC011 03/02 Q1014 R99/29//94 NOSIG
Loading
Personal Weather Stations






























Interactive Weather Map New forecast layout! Learn more

10-Day Weather Forecast

Advertisements
Track Severe Weather on mobile